sensor_id;sensor_type;location;lat;lon;timestamp;P1;durP1;ratioP1;P2;durP2;ratioP2
50906;SDS011;36882;27.680;85.304;2022-12-29T00:01:06;225.07;;;96.30;;
50906;SDS011;36882;27.680;85.304;2022-12-29T00:03:36;196.57;;;88.80;;
50906;SDS011;36882;27.680;85.304;2022-12-29T00:06:06;182.63;;;88.00;;
50906;SDS011;36882;27.680;85.304;2022-12-29T00:08:36;195.30;;;93.88;;
50906;SDS011;36882;27.680;85.304;2022-12-29T00:11:08;202.30;;;101.15;;
50906;SDS011;36882;27.680;85.304;2022-12-29T00:13:45;198.40;;;98.43;;
50906;SDS011;36882;27.680;85.304;2022-12-29T00:16:31;196.88;;;93.97;;
50906;SDS011;36882;27.680;85.304;2022-12-29T00:19:03;179.35;;;94.40;;
50906;SDS011;36882;27.680;85.304;2022-12-29T00:21:34;179.18;;;87.07;;
50906;SDS011;36882;27.680;85.304;2022-12-29T00:24:21;186.05;;;87.80;;
50906;SDS011;36882;27.680;85.304;2022-12-29T00:30:01;179.30;;;87.40;;
50906;SDS011;36882;27.680;85.304;2022-12-29T00:32:41;173.20;;;85.35;;
50906;SDS011;36882;27.680;85.304;2022-12-29T00:35:25;163.38;;;78.95;;
50906;SDS011;36882;27.680;85.304;2022-12-29T00:38:00;158.77;;;76.63;;
50906;SDS011;36882;27.680;85.304;2022-12-29T00:40:52;173.35;;;78.20;;
50906;SDS011;36882;27.680;85.304;2022-12-29T00:43:32;157.73;;;80.18;;
50906;SDS011;36882;27.680;85.304;2022-12-29T00:46:12;163.02;;;78.10;;
50906;SDS011;36882;27.680;85.304;2022-12-29T00:48:45;163.70;;;78.07;;
50906;SDS011;36882;27.680;85.304;2022-12-29T00:51:33;166.90;;;81.97;;
50906;SDS011;36882;27.680;85.304;2022-12-29T00:54:03;178.40;;;81.15;;
50906;SDS011;36882;27.680;85.304;2022-12-29T00:56:33;174.80;;;80.55;;
50906;SDS011;36882;27.680;85.304;2022-12-29T00:59:04;171.20;;;81.10;;
50906;SDS011;36882;27.680;85.304;2022-12-29T01:01:35;172.63;;;81.57;;
50906;SDS011;36882;27.680;85.304;2022-12-29T01:04:07;170.15;;;81.95;;
50906;SDS011;36882;27.680;85.304;2022-12-29T01:09:08;170.75;;;82.95;;
50906;SDS011;36882;27.680;85.304;2022-12-29T01:11:54;184.30;;;90.07;;
50906;SDS011;36882;27.680;85.304;2022-12-29T01:14:24;178.60;;;86.88;;
50906;SDS011;36882;27.680;85.304;2022-12-29T01:16:55;204.27;;;96.88;;
50906;SDS011;36882;27.680;85.304;2022-12-29T01:21:55;202.63;;;98.20;;
50906;SDS011;36882;27.680;85.304;2022-12-29T01:24:26;217.20;;;110.30;;
50906;SDS011;36882;27.680;85.304;2022-12-29T01:26:56;218.15;;;108.32;;
50906;SDS011;36882;27.680;85.304;2022-12-29T01:29:26;230.30;;;109.40;;
50906;SDS011;36882;27.680;85.304;2022-12-29T01:31:56;225.63;;;110.50;;
50906;SDS011;36882;27.680;85.304;2022-12-29T01:34:26;234.55;;;110.22;;
50906;SDS011;36882;27.680;85.304;2022-12-29T01:36:56;260.55;;;119.50;;
50906;SDS011;36882;27.680;85.304;2022-12-29T01:39:28;220.98;;;113.32;;
50906;SDS011;36882;27.680;85.304;2022-12-29T01:42:00;255.43;;;124.82;;
50906;SDS011;36882;27.680;85.304;2022-12-29T01:47:25;230.60;;;112.03;;
50906;SDS011;36882;27.680;85.304;2022-12-29T01:50:03;218.05;;;107.22;;
50906;SDS011;36882;27.680;85.304;2022-12-29T01:52:43;215.05;;;100.82;;
50906;SDS011;36882;27.680;85.304;2022-12-29T01:55:26;230.35;;;102.07;;
50906;SDS011;36882;27.680;85.304;2022-12-29T01:58:00;212.80;;;103.18;;
50906;SDS011;36882;27.680;85.304;2022-12-29T02:00:33;200.50;;;97.63;;
50906;SDS011;36882;27.680;85.304;2022-12-29T02:03:04;205.25;;;96.05;;
50906;SDS011;36882;27.680;85.304;2022-12-29T02:08:38;186.40;;;91.03;;
50906;SDS011;36882;27.680;85.304;2022-12-29T02:11:08;191.68;;;91.93;;
50906;SDS011;36882;27.680;85.304;2022-12-29T02:13:42;181.60;;;96.95;;
50906;SDS011;36882;27.680;85.304;2022-12-29T02:19:24;195.75;;;95.85;;
50906;SDS011;36882;27.680;85.304;2022-12-29T02:22:19;198.05;;;97.38;;
50906;SDS011;36882;27.680;85.304;2022-12-29T02:25:14;193.93;;;95.65;;
50906;SDS011;36882;27.680;85.304;2022-12-29T02:31:02;201.32;;;94.43;;
50906;SDS011;36882;27.680;85.304;2022-12-29T02:39:41;187.68;;;94.18;;
50906;SDS011;36882;27.680;85.304;2022-12-29T02:42:34;173.90;;;88.18;;
50906;SDS011;36882;27.680;85.304;2022-12-29T02:45:19;175.35;;;89.05;;
50906;SDS011;36882;27.680;85.304;2022-12-29T02:48:02;177.82;;;88.57;;
50906;SDS011;36882;27.680;85.304;2022-12-29T02:51:07;192.93;;;86.93;;
50906;SDS011;36882;27.680;85.304;2022-12-29T02:53:43;180.40;;;82.40;;
50906;SDS011;36882;27.680;85.304;2022-12-29T02:56:31;151.55;;;78.15;;
50906;SDS011;36882;27.680;85.304;2022-12-29T02:59:01;144.23;;;76.28;;
50906;SDS011;36882;27.680;85.304;2022-12-29T03:05:01;154.43;;;80.53;;
50906;SDS011;36882;27.680;85.304;2022-12-29T03:14:02;169.40;;;82.57;;
50906;SDS011;36882;27.680;85.304;2022-12-29T03:17:16;162.10;;;82.82;;
50906;SDS011;36882;27.680;85.304;2022-12-29T03:20:08;159.52;;;83.35;;
50906;SDS011;36882;27.680;85.304;2022-12-29T03:22:44;184.68;;;91.28;;
50906;SDS011;36882;27.680;85.304;2022-12-29T03:25:19;188.70;;;93.65;;
50906;SDS011;36882;27.680;85.304;2022-12-29T03:27:58;172.60;;;90.88;;
50906;SDS011;36882;27.680;85.304;2022-12-29T03:30:33;174.35;;;93.22;;
50906;SDS011;36882;27.680;85.304;2022-12-29T03:33:05;193.38;;;95.43;;
50906;SDS011;36882;27.680;85.304;2022-12-29T03:35:40;183.85;;;97.55;;
50906;SDS011;36882;27.680;85.304;2022-12-29T03:38:15;187.38;;;98.53;;
50906;SDS011;36882;27.680;85.304;2022-12-29T03:40:52;188.07;;;99.75;;
50906;SDS011;36882;27.680;85.304;2022-12-29T03:43:27;183.43;;;94.07;;
50906;SDS011;36882;27.680;85.304;2022-12-29T03:45:58;182.23;;;98.20;;
50906;SDS011;36882;27.680;85.304;2022-12-29T03:48:28;188.93;;;97.85;;
50906;SDS011;36882;27.680;85.304;2022-12-29T03:50:58;183.30;;;98.88;;
50906;SDS011;36882;27.680;85.304;2022-12-29T03:53:28;187.10;;;97.72;;
50906;SDS011;36882;27.680;85.304;2022-12-29T03:55:58;196.05;;;102.25;;
50906;SDS011;36882;27.680;85.304;2022-12-29T03:58:28;192.90;;;102.60;;
50906;SDS011;36882;27.680;85.304;2022-12-29T04:00:58;195.13;;;107.38;;
50906;SDS011;36882;27.680;85.304;2022-12-29T04:03:28;203.93;;;106.75;;
50906;SDS011;36882;27.680;85.304;2022-12-29T04:05:58;206.00;;;108.32;;
50906;SDS011;36882;27.680;85.304;2022-12-29T04:08:28;206.02;;;106.32;;
50906;SDS011;36882;27.680;85.304;2022-12-29T04:10:58;194.27;;;106.82;;
50906;SDS011;36882;27.680;85.304;2022-12-29T04:13:28;197.93;;;109.10;;
50906;SDS011;36882;27.680;85.304;2022-12-29T04:15:58;201.07;;;105.30;;
50906;SDS011;36882;27.680;85.304;2022-12-29T04:18:28;207.95;;;110.15;;
50906;SDS011;36882;27.680;85.304;2022-12-29T04:21:00;212.23;;;108.25;;
50906;SDS011;36882;27.680;85.304;2022-12-29T04:23:32;212.05;;;115.50;;
50906;SDS011;36882;27.680;85.304;2022-12-29T04:26:04;209.05;;;114.43;;
50906;SDS011;36882;27.680;85.304;2022-12-29T04:28:36;205.73;;;114.45;;
50906;SDS011;36882;27.680;85.304;2022-12-29T04:31:07;195.05;;;108.05;;
50906;SDS011;36882;27.680;85.304;2022-12-29T04:33:37;205.57;;;107.72;;
50906;SDS011;36882;27.680;85.304;2022-12-29T04:36:07;223.60;;;118.50;;
50906;SDS011;36882;27.680;85.304;2022-12-29T04:38:37;228.25;;;119.32;;
50906;SDS011;36882;27.680;85.304;2022-12-29T04:41:07;198.40;;;111.05;;
50906;SDS011;36882;27.680;85.304;2022-12-29T04:43:37;208.98;;;114.32;;
50906;SDS011;36882;27.680;85.304;2022-12-29T04:46:07;203.85;;;118.38;;
50906;SDS011;36882;27.680;85.304;2022-12-29T04:48:38;225.68;;;121.10;;
50906;SDS011;36882;27.680;85.304;2022-12-29T04:51:08;224.88;;;128.40;;
50906;SDS011;36882;27.680;85.304;2022-12-29T04:53:38;220.18;;;123.78;;
50906;SDS011;36882;27.680;85.304;2022-12-29T04:56:08;224.35;;;126.20;;
50906;SDS011;36882;27.680;85.304;2022-12-29T04:58:38;216.10;;;124.93;;
50906;SDS011;36882;27.680;85.304;2022-12-29T05:01:08;220.35;;;128.05;;
50906;SDS011;36882;27.680;85.304;2022-12-29T05:03:39;230.90;;;130.27;;
50906;SDS011;36882;27.680;85.304;2022-12-29T05:06:09;198.93;;;112.57;;
50906;SDS011;36882;27.680;85.304;2022-12-29T05:08:39;203.00;;;116.10;;
50906;SDS011;36882;27.680;85.304;2022-12-29T05:11:09;228.35;;;125.88;;
50906;SDS011;36882;27.680;85.304;2022-12-29T05:13:40;176.15;;;102.47;;
50906;SDS011;36882;27.680;85.304;2022-12-29T05:16:10;181.85;;;103.63;;
50906;SDS011;36882;27.680;85.304;2022-12-29T05:18:40;164.43;;;91.65;;
50906;SDS011;36882;27.680;85.304;2022-12-29T05:21:10;181.00;;;98.50;;
50906;SDS011;36882;27.680;85.304;2022-12-29T05:23:40;180.05;;;95.85;;
50906;SDS011;36882;27.680;85.304;2022-12-29T05:26:10;182.60;;;98.57;;
50906;SDS011;36882;27.680;85.304;2022-12-29T05:28:40;159.27;;;91.43;;
50906;SDS011;36882;27.680;85.304;2022-12-29T05:31:10;167.07;;;95.05;;
50906;SDS011;36882;27.680;85.304;2022-12-29T05:33:40;165.85;;;91.75;;
50906;SDS011;36882;27.680;85.304;2022-12-29T05:36:10;168.60;;;87.70;;
50906;SDS011;36882;27.680;85.304;2022-12-29T05:38:41;138.63;;;79.95;;
50906;SDS011;36882;27.680;85.304;2022-12-29T05:41:11;146.13;;;76.40;;
50906;SDS011;36882;27.680;85.304;2022-12-29T05:43:41;139.63;;;80.85;;
50906;SDS011;36882;27.680;85.304;2022-12-29T05:46:11;165.10;;;83.22;;
50906;SDS011;36882;27.680;85.304;2022-12-29T05:48:41;153.57;;;85.15;;
50906;SDS011;36882;27.680;85.304;2022-12-29T05:51:11;159.27;;;88.82;;
50906;SDS011;36882;27.680;85.304;2022-12-29T05:53:41;159.25;;;86.38;;
50906;SDS011;36882;27.680;85.304;2022-12-29T05:56:11;177.63;;;96.50;;
50906;SDS011;36882;27.680;85.304;2022-12-29T05:58:41;151.52;;;85.63;;
50906;SDS011;36882;27.680;85.304;2022-12-29T06:01:11;147.93;;;86.38;;
50906;SDS011;36882;27.680;85.304;2022-12-29T06:03:41;153.18;;;88.85;;
50906;SDS011;36882;27.680;85.304;2022-12-29T06:06:14;141.02;;;80.38;;
50906;SDS011;36882;27.680;85.304;2022-12-29T06:08:44;152.88;;;87.00;;
50906;SDS011;36882;27.680;85.304;2022-12-29T06:11:14;157.05;;;82.85;;
50906;SDS011;36882;27.680;85.304;2022-12-29T06:13:45;154.18;;;87.93;;
50906;SDS011;36882;27.680;85.304;2022-12-29T06:16:15;147.80;;;81.25;;
50906;SDS011;36882;27.680;85.304;2022-12-29T06:18:45;155.40;;;80.85;;
50906;SDS011;36882;27.680;85.304;2022-12-29T06:21:15;139.18;;;79.20;;
50906;SDS011;36882;27.680;85.304;2022-12-29T06:23:45;122.60;;;73.18;;
50906;SDS011;36882;27.680;85.304;2022-12-29T06:26:15;126.05;;;71.70;;
50906;SDS011;36882;27.680;85.304;2022-12-29T06:28:51;132.73;;;74.03;;
50906;SDS011;36882;27.680;85.304;2022-12-29T06:31:22;138.23;;;76.20;;
50906;SDS011;36882;27.680;85.304;2022-12-29T06:33:52;124.75;;;66.18;;
50906;SDS011;36882;27.680;85.304;2022-12-29T06:36:22;116.18;;;60.58;;
50906;SDS011;36882;27.680;85.304;2022-12-29T06:38:52;143.32;;;66.82;;
50906;SDS011;36882;27.680;85.304;2022-12-29T06:41:22;116.20;;;66.07;;
50906;SDS011;36882;27.680;85.304;2022-12-29T06:43:58;130.20;;;66.78;;
50906;SDS011;36882;27.680;85.304;2022-12-29T06:46:28;121.05;;;65.53;;
50906;SDS011;36882;27.680;85.304;2022-12-29T06:48:58;137.13;;;75.35;;
50906;SDS011;36882;27.680;85.304;2022-12-29T06:51:28;124.50;;;70.75;;
50906;SDS011;36882;27.680;85.304;2022-12-29T06:53:58;115.57;;;65.75;;
50906;SDS011;36882;27.680;85.304;2022-12-29T06:56:29;109.97;;;64.35;;
50906;SDS011;36882;27.680;85.304;2022-12-29T06:58:59;129.63;;;68.03;;
50906;SDS011;36882;27.680;85.304;2022-12-29T07:01:29;118.85;;;71.22;;
50906;SDS011;36882;27.680;85.304;2022-12-29T07:03:59;111.65;;;63.38;;
50906;SDS011;36882;27.680;85.304;2022-12-29T07:06:29;120.20;;;68.25;;
50906;SDS011;36882;27.680;85.304;2022-12-29T07:08:59;109.55;;;64.47;;
50906;SDS011;36882;27.680;85.304;2022-12-29T07:11:29;124.63;;;69.07;;
50906;SDS011;36882;27.680;85.304;2022-12-29T07:13:59;111.78;;;65.13;;
50906;SDS011;36882;27.680;85.304;2022-12-29T07:16:29;122.60;;;67.50;;
50906;SDS011;36882;27.680;85.304;2022-12-29T07:19:02;138.13;;;70.63;;
50906;SDS011;36882;27.680;85.304;2022-12-29T07:24:02;120.20;;;65.63;;
50906;SDS011;36882;27.680;85.304;2022-12-29T07:29:02;113.05;;;60.92;;
50906;SDS011;36882;27.680;85.304;2022-12-29T07:31:33;132.55;;;66.65;;
50906;SDS011;36882;27.680;85.304;2022-12-29T07:34:03;116.20;;;63.22;;
50906;SDS011;36882;27.680;85.304;2022-12-29T07:36:33;123.63;;;70.38;;
50906;SDS011;36882;27.680;85.304;2022-12-29T07:39:03;117.90;;;65.55;;
50906;SDS011;36882;27.680;85.304;2022-12-29T07:41:33;117.30;;;68.38;;
50906;SDS011;36882;27.680;85.304;2022-12-29T07:44:03;129.65;;;66.65;;
50906;SDS011;36882;27.680;85.304;2022-12-29T07:46:33;114.47;;;65.68;;
50906;SDS011;36882;27.680;85.304;2022-12-29T07:49:22;119.80;;;66.30;;
50906;SDS011;36882;27.680;85.304;2022-12-29T07:51:52;133.63;;;67.80;;
50906;SDS011;36882;27.680;85.304;2022-12-29T07:54:22;114.47;;;64.82;;
50906;SDS011;36882;27.680;85.304;2022-12-29T07:56:53;110.03;;;60.95;;
50906;SDS011;36882;27.680;85.304;2022-12-29T07:59:23;111.50;;;62.47;;
50906;SDS011;36882;27.680;85.304;2022-12-29T08:01:53;115.43;;;63.75;;
50906;SDS011;36882;27.680;85.304;2022-12-29T08:04:23;106.60;;;60.45;;
50906;SDS011;36882;27.680;85.304;2022-12-29T08:06:53;112.72;;;61.40;;
50906;SDS011;36882;27.680;85.304;2022-12-29T08:09:23;115.43;;;66.43;;
50906;SDS011;36882;27.680;85.304;2022-12-29T08:11:54;124.85;;;67.30;;
50906;SDS011;36882;27.680;85.304;2022-12-29T08:16:53;109.88;;;59.90;;
50906;SDS011;36882;27.680;85.304;2022-12-29T08:19:23;106.85;;;60.15;;
50906;SDS011;36882;27.680;85.304;2022-12-29T08:21:54;113.68;;;61.03;;
50906;SDS011;36882;27.680;85.304;2022-12-29T08:24:23;127.85;;;64.60;;
50906;SDS011;36882;27.680;85.304;2022-12-29T08:26:53;121.30;;;67.35;;
50906;SDS011;36882;27.680;85.304;2022-12-29T08:29:23;130.38;;;74.75;;
50906;SDS011;36882;27.680;85.304;2022-12-29T08:31:53;137.10;;;79.55;;
50906;SDS011;36882;27.680;85.304;2022-12-29T08:34:24;147.63;;;84.10;;
50906;SDS011;36882;27.680;85.304;2022-12-29T08:36:54;132.63;;;77.57;;
50906;SDS011;36882;27.680;85.304;2022-12-29T08:41:54;149.48;;;79.72;;
50906;SDS011;36882;27.680;85.304;2022-12-29T08:44:24;138.38;;;78.50;;
50906;SDS011;36882;27.680;85.304;2022-12-29T08:46:54;147.65;;;80.85;;
50906;SDS011;36882;27.680;85.304;2022-12-29T08:49:25;161.05;;;83.78;;
50906;SDS011;36882;27.680;85.304;2022-12-29T08:51:55;144.23;;;81.88;;
50906;SDS011;36882;27.680;85.304;2022-12-29T08:56:55;148.00;;;81.68;;
50906;SDS011;36882;27.680;85.304;2022-12-29T08:59:25;165.85;;;86.13;;
50906;SDS011;36882;27.680;85.304;2022-12-29T09:01:55;151.35;;;84.93;;
50906;SDS011;36882;27.680;85.304;2022-12-29T09:04:26;151.77;;;81.03;;
50906;SDS011;36882;27.680;85.304;2022-12-29T09:06:56;168.35;;;81.03;;
50906;SDS011;36882;27.680;85.304;2022-12-29T09:09:26;152.32;;;83.38;;
50906;SDS011;36882;27.680;85.304;2022-12-29T09:11:57;145.93;;;81.13;;
50906;SDS011;36882;27.680;85.304;2022-12-29T09:16:57;131.57;;;73.60;;
50906;SDS011;36882;27.680;85.304;2022-12-29T09:19:43;143.98;;;77.57;;
50906;SDS011;36882;27.680;85.304;2022-12-29T09:22:14;134.55;;;75.53;;
50906;SDS011;36882;27.680;85.304;2022-12-29T09:24:44;136.73;;;74.78;;
50906;SDS011;36882;27.680;85.304;2022-12-29T09:27:14;115.57;;;69.53;;
50906;SDS011;36882;27.680;85.304;2022-12-29T09:29:44;116.22;;;68.55;;
50906;SDS011;36882;27.680;85.304;2022-12-29T09:32:14;119.80;;;66.93;;
50906;SDS011;36882;27.680;85.304;2022-12-29T09:34:46;132.68;;;72.75;;
50906;SDS011;36882;27.680;85.304;2022-12-29T09:37:17;128.57;;;71.90;;
50906;SDS011;36882;27.680;85.304;2022-12-29T09:39:47;123.45;;;73.75;;
50906;SDS011;36882;27.680;85.304;2022-12-29T09:42:38;133.88;;;75.65;;
50906;SDS011;36882;27.680;85.304;2022-12-29T09:45:14;132.90;;;71.13;;
50906;SDS011;36882;27.680;85.304;2022-12-29T09:47:47;126.43;;;68.97;;
50906;SDS011;36882;27.680;85.304;2022-12-29T09:50:34;135.20;;;71.22;;
50906;SDS011;36882;27.680;85.304;2022-12-29T09:53:15;118.13;;;69.05;;
50906;SDS011;36882;27.680;85.304;2022-12-29T09:55:55;123.32;;;71.82;;
50906;SDS011;36882;27.680;85.304;2022-12-29T09:58:34;130.55;;;73.95;;
50906;SDS011;36882;27.680;85.304;2022-12-29T10:01:38;142.35;;;76.13;;
50906;SDS011;36882;27.680;85.304;2022-12-29T10:04:01;143.52;;;71.88;;
50906;SDS011;36882;27.680;85.304;2022-12-29T10:06:37;131.02;;;72.00;;
50906;SDS011;36882;27.680;85.304;2022-12-29T10:09:54;139.15;;;75.90;;
50906;SDS011;36882;27.680;85.304;2022-12-29T10:18:22;135.30;;;71.10;;
50906;SDS011;36882;27.680;85.304;2022-12-29T10:24:34;115.93;;;63.38;;
50906;SDS011;36882;27.680;85.304;2022-12-29T10:27:12;111.30;;;59.58;;
50906;SDS011;36882;27.680;85.304;2022-12-29T10:29:50;106.00;;;63.33;;
50906;SDS011;36882;27.680;85.304;2022-12-29T10:32:44;103.30;;;58.58;;
50906;SDS011;36882;27.680;85.304;2022-12-29T10:35:21;108.90;;;60.70;;
50906;SDS011;36882;27.680;85.304;2022-12-29T10:37:58;109.45;;;60.05;;
50906;SDS011;36882;27.680;85.304;2022-12-29T10:41:00;103.90;;;59.88;;
50906;SDS011;36882;27.680;85.304;2022-12-29T10:43:46;120.90;;;61.72;;
50906;SDS011;36882;27.680;85.304;2022-12-29T10:46:19;114.28;;;55.65;;
50906;SDS011;36882;27.680;85.304;2022-12-29T10:48:55;111.63;;;60.67;;
50906;SDS011;36882;27.680;85.304;2022-12-29T10:51:27;107.22;;;57.28;;
50906;SDS011;36882;27.680;85.304;2022-12-29T10:57:00;110.35;;;61.72;;
50906;SDS011;36882;27.680;85.304;2022-12-29T10:59:35;118.72;;;63.05;;
50906;SDS011;36882;27.680;85.304;2022-12-29T11:02:17;111.28;;;58.33;;
50906;SDS011;36882;27.680;85.304;2022-12-29T11:05:03;118.00;;;62.58;;
50906;SDS011;36882;27.680;85.304;2022-12-29T11:07:42;132.40;;;71.15;;
50906;SDS011;36882;27.680;85.304;2022-12-29T11:10:16;120.82;;;67.68;;
50906;SDS011;36882;27.680;85.304;2022-12-29T11:13:00;115.38;;;66.43;;
50906;SDS011;36882;27.680;85.304;2022-12-29T11:15:41;142.23;;;72.25;;
50906;SDS011;36882;27.680;85.304;2022-12-29T11:21:02;139.98;;;74.20;;
50906;SDS011;36882;27.680;85.304;2022-12-29T11:23:37;140.57;;;73.50;;
50906;SDS011;36882;27.680;85.304;2022-12-29T11:26:14;140.93;;;73.00;;
50906;SDS011;36882;27.680;85.304;2022-12-29T11:31:53;145.80;;;71.93;;
50906;SDS011;36882;27.680;85.304;2022-12-29T11:34:32;131.85;;;69.53;;
50906;SDS011;36882;27.680;85.304;2022-12-29T11:37:04;141.60;;;74.63;;
50906;SDS011;36882;27.680;85.304;2022-12-29T11:39:57;154.80;;;76.85;;
50906;SDS011;36882;27.680;85.304;2022-12-29T11:42:37;148.68;;;72.22;;
50906;SDS011;36882;27.680;85.304;2022-12-29T11:45:15;135.82;;;73.93;;
50906;SDS011;36882;27.680;85.304;2022-12-29T11:47:50;149.15;;;78.97;;
50906;SDS011;36882;27.680;85.304;2022-12-29T11:50:24;138.88;;;75.70;;
50906;SDS011;36882;27.680;85.304;2022-12-29T11:52:59;155.25;;;79.18;;
50906;SDS011;36882;27.680;85.304;2022-12-29T11:55:34;160.60;;;80.75;;
50906;SDS011;36882;27.680;85.304;2022-12-29T11:58:05;162.23;;;83.90;;
50906;SDS011;36882;27.680;85.304;2022-12-29T12:00:43;157.60;;;86.30;;
50906;SDS011;36882;27.680;85.304;2022-12-29T12:03:18;173.93;;;86.97;;
50906;SDS011;36882;27.680;85.304;2022-12-29T12:05:54;166.82;;;86.88;;
50906;SDS011;36882;27.680;85.304;2022-12-29T12:08:45;172.32;;;90.82;;
50906;SDS011;36882;27.680;85.304;2022-12-29T12:11:27;200.18;;;104.07;;
50906;SDS011;36882;27.680;85.304;2022-12-29T12:16:53;208.82;;;108.40;;
50906;SDS011;36882;27.680;85.304;2022-12-29T12:19:32;195.07;;;103.85;;
50906;SDS011;36882;27.680;85.304;2022-12-29T12:22:19;192.55;;;106.10;;
50906;SDS011;36882;27.680;85.304;2022-12-29T12:30:47;183.23;;;96.55;;
50906;SDS011;36882;27.680;85.304;2022-12-29T12:36:19;182.65;;;100.22;;
50906;SDS011;36882;27.680;85.304;2022-12-29T12:39:05;197.65;;;103.55;;
50906;SDS011;36882;27.680;85.304;2022-12-29T12:42:10;200.75;;;108.40;;
50906;SDS011;36882;27.680;85.304;2022-12-29T12:48:17;216.07;;;113.47;;
50906;SDS011;36882;27.680;85.304;2022-12-29T12:56:58;227.52;;;119.75;;
50906;SDS011;36882;27.680;85.304;2022-12-29T12:59:42;228.18;;;120.38;;
50906;SDS011;36882;27.680;85.304;2022-12-29T13:08:36;225.70;;;116.45;;
50906;SDS011;36882;27.680;85.304;2022-12-29T13:14:36;237.65;;;120.85;;
50906;SDS011;36882;27.680;85.304;2022-12-29T13:17:23;232.10;;;120.47;;
50906;SDS011;36882;27.680;85.304;2022-12-29T13:23:28;225.63;;;118.90;;
50906;SDS011;36882;27.680;85.304;2022-12-29T13:26:22;226.98;;;119.03;;
50906;SDS011;36882;27.680;85.304;2022-12-29T13:29:17;240.25;;;126.75;;
50906;SDS011;36882;27.680;85.304;2022-12-29T13:34:57;227.02;;;119.88;;
50906;SDS011;36882;27.680;85.304;2022-12-29T13:37:46;234.38;;;127.18;;
50906;SDS011;36882;27.680;85.304;2022-12-29T13:40:24;235.05;;;121.60;;
50906;SDS011;36882;27.680;85.304;2022-12-29T13:43:02;232.82;;;122.60;;
50906;SDS011;36882;27.680;85.304;2022-12-29T13:48:05;237.15;;;122.38;;
50906;SDS011;36882;27.680;85.304;2022-12-29T13:50:45;245.93;;;128.40;;
50906;SDS011;36882;27.680;85.304;2022-12-29T13:56:34;263.90;;;141.18;;
50906;SDS011;36882;27.680;85.304;2022-12-29T13:59:16;271.23;;;142.23;;
50906;SDS011;36882;27.680;85.304;2022-12-29T14:01:56;280.73;;;153.10;;
50906;SDS011;36882;27.680;85.304;2022-12-29T14:04:31;278.98;;;150.50;;
50906;SDS011;36882;27.680;85.304;2022-12-29T14:07:13;281.67;;;147.20;;
50906;SDS011;36882;27.680;85.304;2022-12-29T14:09:47;279.75;;;147.93;;
50906;SDS011;36882;27.680;85.304;2022-12-29T14:18:03;267.42;;;138.95;;
50906;SDS011;36882;27.680;85.304;2022-12-29T14:23:50;265.33;;;137.60;;
50906;SDS011;36882;27.680;85.304;2022-12-29T14:26:34;277.08;;;142.32;;
50906;SDS011;36882;27.680;85.304;2022-12-29T14:38:19;259.10;;;136.77;;
50906;SDS011;36882;27.680;85.304;2022-12-29T14:40:52;267.50;;;135.02;;
50906;SDS011;36882;27.680;85.304;2022-12-29T14:46:46;284.08;;;144.15;;
50906;SDS011;36882;27.680;85.304;2022-12-29T14:49:42;272.48;;;140.13;;
50906;SDS011;36882;27.680;85.304;2022-12-29T14:52:22;257.80;;;132.93;;
50906;SDS011;36882;27.680;85.304;2022-12-29T14:54:57;253.10;;;133.95;;
50906;SDS011;36882;27.680;85.304;2022-12-29T15:00:23;258.15;;;135.25;;
50906;SDS011;36882;27.680;85.304;2022-12-29T15:03:16;269.60;;;136.07;;
50906;SDS011;36882;27.680;85.304;2022-12-29T15:05:53;267.23;;;135.57;;
50906;SDS011;36882;27.680;85.304;2022-12-29T15:08:31;267.92;;;129.73;;
50906;SDS011;36882;27.680;85.304;2022-12-29T15:13:48;251.23;;;133.50;;
50906;SDS011;36882;27.680;85.304;2022-12-29T15:16:23;264.02;;;134.75;;
50906;SDS011;36882;27.680;85.304;2022-12-29T15:18:58;265.80;;;130.30;;
50906;SDS011;36882;27.680;85.304;2022-12-29T15:21:30;260.85;;;138.30;;
50906;SDS011;36882;27.680;85.304;2022-12-29T15:24:02;249.70;;;128.32;;
50906;SDS011;36882;27.680;85.304;2022-12-29T15:26:41;254.15;;;128.75;;
50906;SDS011;36882;27.680;85.304;2022-12-29T15:32:18;265.52;;;133.60;;
50906;SDS011;36882;27.680;85.304;2022-12-29T15:34:52;249.07;;;127.07;;
50906;SDS011;36882;27.680;85.304;2022-12-29T15:37:25;267.52;;;133.50;;
50906;SDS011;36882;27.680;85.304;2022-12-29T15:39:56;256.08;;;130.68;;
50906;SDS011;36882;27.680;85.304;2022-12-29T15:42:31;258.95;;;132.75;;
50906;SDS011;36882;27.680;85.304;2022-12-29T15:45:25;261.77;;;133.35;;
50906;SDS011;36882;27.680;85.304;2022-12-29T15:48:01;252.77;;;124.28;;
50906;SDS011;36882;27.680;85.304;2022-12-29T15:50:34;258.92;;;135.50;;
50906;SDS011;36882;27.680;85.304;2022-12-29T15:53:10;262.25;;;123.78;;
50906;SDS011;36882;27.680;85.304;2022-12-29T15:55:50;249.98;;;127.35;;
50906;SDS011;36882;27.680;85.304;2022-12-29T15:58:29;257.70;;;124.22;;
50906;SDS011;36882;27.680;85.304;2022-12-29T16:01:15;268.92;;;126.38;;
50906;SDS011;36882;27.680;85.304;2022-12-29T16:03:53;268.20;;;130.07;;
50906;SDS011;36882;27.680;85.304;2022-12-29T16:06:55;258.80;;;127.22;;
50906;SDS011;36882;27.680;85.304;2022-12-29T16:09:36;258.80;;;127.85;;
50906;SDS011;36882;27.680;85.304;2022-12-29T16:12:20;256.38;;;123.75;;
50906;SDS011;36882;27.680;85.304;2022-12-29T16:14:55;250.93;;;129.48;;
50906;SDS011;36882;27.680;85.304;2022-12-29T16:17:30;254.18;;;127.05;;
50906;SDS011;36882;27.680;85.304;2022-12-29T16:20:04;250.98;;;128.15;;
50906;SDS011;36882;27.680;85.304;2022-12-29T16:22:51;257.92;;;120.97;;
50906;SDS011;36882;27.680;85.304;2022-12-29T16:25:28;254.07;;;126.15;;
50906;SDS011;36882;27.680;85.304;2022-12-29T16:28:03;262.67;;;130.65;;
50906;SDS011;36882;27.680;85.304;2022-12-29T16:33:50;281.70;;;131.68;;
50906;SDS011;36882;27.680;85.304;2022-12-29T16:36:26;270.25;;;136.65;;
50906;SDS011;36882;27.680;85.304;2022-12-29T16:41:51;271.45;;;135.80;;
50906;SDS011;36882;27.680;85.304;2022-12-29T16:49:49;291.70;;;143.35;;
50906;SDS011;36882;27.680;85.304;2022-12-29T16:52:24;289.80;;;145.48;;
50906;SDS011;36882;27.680;85.304;2022-12-29T16:55:02;289.85;;;148.75;;
50906;SDS011;36882;27.680;85.304;2022-12-29T16:57:33;289.50;;;145.73;;
50906;SDS011;36882;27.680;85.304;2022-12-29T17:00:06;289.02;;;142.48;;
50906;SDS011;36882;27.680;85.304;2022-12-29T17:02:47;276.73;;;137.38;;
50906;SDS011;36882;27.680;85.304;2022-12-29T17:05:20;286.13;;;142.27;;
50906;SDS011;36882;27.680;85.304;2022-12-29T17:07:51;276.33;;;138.63;;
50906;SDS011;36882;27.680;85.304;2022-12-29T17:13:10;255.43;;;129.40;;